createdAt,value
2023-03-19T00:02:52.451Z,26.25
2023-03-19T00:07:54.159Z,26.20
2023-03-19T00:12:55.812Z,24.90
2023-03-19T00:17:57.607Z,27.10
2023-03-19T00:22:59.379Z,25.05
2023-03-19T00:28:01.032Z,24.60
2023-03-19T00:33:02.943Z,26.02
2023-03-19T00:38:04.783Z,25.15
2023-03-19T00:43:07.080Z,24.65
2023-03-19T00:48:08.735Z,24.63
2023-03-19T00:53:10.508Z,25.55
2023-03-19T00:58:12.453Z,26.65
2023-03-19T01:03:14.275Z,23.98
2023-03-19T01:08:17.184Z,23.98
2023-03-19T01:13:19.098Z,25.00
2023-03-19T01:18:20.838Z,23.33
2023-03-19T01:23:22.512Z,23.98
2023-03-19T01:28:24.506Z,23.13
2023-03-19T01:33:26.486Z,24.88
2023-03-19T01:38:33.174Z,23.08
2023-03-19T01:43:39.138Z,22.40
2023-03-19T01:49:02.833Z,21.65
2023-03-19T01:54:08.465Z,21.77
2023-03-19T01:59:28.031Z,24.10
2023-03-19T02:04:54.257Z,23.23
2023-03-19T02:09:56.688Z,23.58
2023-03-19T02:14:58.564Z,22.55
2023-03-19T02:20:26.014Z,22.40
2023-03-19T02:25:36.621Z,19.42
2023-03-19T02:30:38.748Z,20.77
2023-03-19T02:35:47.263Z,22.02
2023-03-19T02:41:10.196Z,21.63
2023-03-19T02:46:14.084Z,19.63
2023-03-19T02:51:16.257Z,22.10
2023-03-19T02:56:18.292Z,20.90
2023-03-19T03:01:19.926Z,21.30
2023-03-19T03:06:21.658Z,21.10
2023-03-19T03:11:23.257Z,20.75
2023-03-19T03:16:25.466Z,21.88
2023-03-19T03:21:27.178Z,20.70
2023-03-19T03:26:29.103Z,21.42
2023-03-19T03:31:30.743Z,21.75
2023-03-19T03:36:32.522Z,19.38
2023-03-19T03:41:34.263Z,20.42
2023-03-19T03:46:37.795Z,17.58
2023-03-19T03:51:39.422Z,18.75
2023-03-19T03:56:41.113Z,15.02
2023-03-19T04:01:43.279Z,15.20
2023-03-19T04:06:45.005Z,16.27
2023-03-19T04:12:03.062Z,16.00
2023-03-19T04:17:05.276Z,17.10
2023-03-19T04:22:08.566Z,15.75
2023-03-19T04:27:10.261Z,15.48
2023-03-19T04:32:13.671Z,17.65
2023-03-19T04:37:15.409Z,17.65
2023-03-19T04:42:23.631Z,15.98
2023-03-19T04:47:48.497Z,16.63
2023-03-19T04:52:50.627Z,16.25
2023-03-19T04:57:53.003Z,16.58
2023-03-19T05:02:58.130Z,15.27
2023-03-19T05:08:00.025Z,15.70
2023-03-19T05:13:02.444Z,14.70
2023-03-19T05:18:05.292Z,15.00
2023-03-19T05:23:15.155Z,15.15
2023-03-19T05:28:28.620Z,16.00
2023-03-19T05:33:30.744Z,15.15
2023-03-19T05:38:32.449Z,15.25
2023-03-19T05:43:40.019Z,15.65
2023-03-19T05:48:46.911Z,16.02
2023-03-19T05:53:48.665Z,16.00
2023-03-19T05:59:22.371Z,14.70
2023-03-19T06:04:37.010Z,13.75
2023-03-19T06:09:38.771Z,14.20
2023-03-19T06:14:40.805Z,14.70
2023-03-19T06:20:01.275Z,13.77
2023-03-19T06:25:03.026Z,14.32
2023-03-19T06:30:07.591Z,14.73
2023-03-19T06:35:10.404Z,15.07
2023-03-19T06:40:12.502Z,13.82
2023-03-19T06:45:16.561Z,13.75
2023-03-19T06:50:18.347Z,13.13
2023-03-19T06:55:20.643Z,13.27
2023-03-19T07:00:22.683Z,14.23
2023-03-19T07:05:24.343Z,13.77
2023-03-19T07:10:25.993Z,12.50
2023-03-19T07:15:27.582Z,13.48
2023-03-19T07:20:29.339Z,11.73
2023-03-19T07:25:31.373Z,11.95
2023-03-19T07:30:33.166Z,12.02
2023-03-19T07:35:35.037Z,12.45
2023-03-19T07:40:37.091Z,12.23
2023-03-19T07:45:38.740Z,12.15
2023-03-19T07:50:40.377Z,12.13
2023-03-19T07:55:41.980Z,13.27
2023-03-19T08:00:44.999Z,13.98
2023-03-19T08:05:48.950Z,14.23
2023-03-19T08:10:52.982Z,13.45
2023-03-19T08:15:56.426Z,13.40
2023-03-19T08:20:58.182Z,13.82
2023-03-19T08:25:59.790Z,13.80
2023-03-19T08:31:13.111Z,14.32
2023-03-19T08:36:15.516Z,14.63
2023-03-19T08:41:17.114Z,14.02
2023-03-19T08:46:19.002Z,13.52
2023-03-19T08:51:20.982Z,13.63
2023-03-19T08:56:22.661Z,12.45
2023-03-19T09:01:24.500Z,14.48
2023-03-19T09:06:26.540Z,13.80
2023-03-19T09:11:28.201Z,13.60
2023-03-19T09:16:31.346Z,13.38
2023-03-19T09:21:32.975Z,12.95
2023-03-19T09:26:34.745Z,13.38
2023-03-19T09:31:37.453Z,12.27
2023-03-19T09:36:39.172Z,12.75
2023-03-19T09:42:00.163Z,12.57
2023-03-19T09:47:12.908Z,12.75
2023-03-19T09:52:44.047Z,12.70
2023-03-19T09:57:47.682Z,12.55
2023-03-19T10:02:59.186Z,11.45
2023-03-19T10:08:32.081Z,12.65
2023-03-19T10:13:40.231Z,9.98
2023-03-19T10:18:48.060Z,11.45
2023-03-19T10:24:08.054Z,11.05
2023-03-19T10:29:14.648Z,10.35
2023-03-19T10:34:35.106Z,11.55
2023-03-19T10:39:38.670Z,11.57
2023-03-19T10:44:58.165Z,12.10
2023-03-19T10:49:59.766Z,11.23
2023-03-19T10:55:03.518Z,12.30
2023-03-19T11:00:27.102Z,11.13
2023-03-19T11:05:31.952Z,12.25
2023-03-19T11:10:36.018Z,12.55
2023-03-19T11:15:38.985Z,11.48
2023-03-19T11:20:41.889Z,10.93
2023-03-19T11:25:52.147Z,11.48
2023-03-19T11:31:15.604Z,12.02
2023-03-19T11:36:31.107Z,12.00
2023-03-19T11:42:00.347Z,12.70
2023-03-19T11:47:17.802Z,11.88
2023-03-19T11:52:50.250Z,11.55
2023-03-19T11:58:16.066Z,12.07
2023-03-19T12:03:37.195Z,12.38
2023-03-19T12:09:02.121Z,11.80
2023-03-19T12:14:32.154Z,11.07
2023-03-19T12:19:51.836Z,11.23
2023-03-19T12:25:18.924Z,11.48
2023-03-19T12:30:46.989Z,10.93
2023-03-19T12:35:52.440Z,11.27
2023-03-19T12:41:00.102Z,12.00
2023-03-19T12:46:19.330Z,11.20
2023-03-19T12:51:26.722Z,11.48
2023-03-19T12:56:52.322Z,10.73
2023-03-19T13:02:00.918Z,12.30
2023-03-19T13:07:28.849Z,11.50
2023-03-19T13:12:34.331Z,12.02
2023-03-19T13:17:41.582Z,11.10
2023-03-19T13:22:47.598Z,11.93
2023-03-19T13:27:54.370Z,12.68
2023-03-19T13:33:13.001Z,12.40
2023-03-19T13:38:15.634Z,12.13
2023-03-19T13:43:30.677Z,11.02
2023-03-19T13:48:32.251Z,11.40
2023-03-19T13:53:52.061Z,13.25
2023-03-19T13:59:27.912Z,12.00
2023-03-19T14:04:31.265Z,12.68
2023-03-19T14:09:44.952Z,12.20
2023-03-19T14:15:07.325Z,12.15
2023-03-19T14:20:12.813Z,9.32
2023-03-19T14:25:20.305Z,10.57
2023-03-19T14:30:37.856Z,9.05
2023-03-19T14:35:45.077Z,8.40
2023-03-19T14:40:51.446Z,10.60
2023-03-19T14:46:00.956Z,8.50
2023-03-19T14:51:08.594Z,8.27
2023-03-19T14:56:15.858Z,4.95
2023-03-19T15:01:19.127Z,5.20
2023-03-19T15:06:21.122Z,5.30
2023-03-19T15:12:01.290Z,4.70
2023-03-19T15:17:32.198Z,3.58
2023-03-19T15:22:34.711Z,2.85
2023-03-19T15:27:36.737Z,2.33
2023-03-19T15:32:56.307Z,2.65
2023-03-19T15:38:07.018Z,2.25
2023-03-19T15:43:12.874Z,2.35
2023-03-19T15:48:27.277Z,2.95
2023-03-19T15:53:32.385Z,2.50
2023-03-19T15:58:40.111Z,2.08
2023-03-19T16:03:45.477Z,2.33
2023-03-19T16:08:49.783Z,2.80
2023-03-19T16:14:17.228Z,2.30
2023-03-19T16:19:58.131Z,2.55
2023-03-19T16:25:02.040Z,3.72
2023-03-19T16:30:13.777Z,2.63
2023-03-19T16:35:19.935Z,2.30
2023-03-19T16:40:21.494Z,2.22
2023-03-19T16:45:27.534Z,2.38
2023-03-19T16:50:33.807Z,2.15
2023-03-19T16:55:36.337Z,2.40
2023-03-19T17:00:38.286Z,2.88
2023-03-19T17:05:39.923Z,3.00
2023-03-19T17:10:49.739Z,2.75
2023-03-19T17:15:51.618Z,2.25
2023-03-19T17:21:10.794Z,2.40
2023-03-19T17:26:21.833Z,2.20
2023-03-19T17:31:29.111Z,2.65
2023-03-19T17:36:31.048Z,2.47
2023-03-19T17:41:35.727Z,2.53
2023-03-19T17:46:49.930Z,2.60
2023-03-19T17:51:51.723Z,3.33
2023-03-19T17:56:54.585Z,2.85
2023-03-19T18:01:56.318Z,3.53
2023-03-19T18:06:57.963Z,3.83
2023-03-19T18:11:59.652Z,3.97
2023-03-19T18:17:01.453Z,4.05
2023-03-19T18:22:12.620Z,3.90
2023-03-19T18:27:14.691Z,4.65
2023-03-19T18:32:23.426Z,6.18
2023-03-19T18:37:25.472Z,5.90
2023-03-19T18:42:28.173Z,5.07
2023-03-19T18:47:30.621Z,4.55
2023-03-19T18:52:32.227Z,4.78
2023-03-19T18:57:36.252Z,4.30
2023-03-19T19:02:37.882Z,4.30
2023-03-19T19:07:39.479Z,5.70
2023-03-19T19:12:44.471Z,6.95
2023-03-19T19:17:46.893Z,5.38
2023-03-19T19:22:50.674Z,7.25
2023-03-19T19:28:01.969Z,5.13
2023-03-19T19:33:04.665Z,8.20
2023-03-19T19:38:06.756Z,6.57
2023-03-19T19:43:18.410Z,6.70
2023-03-19T19:48:29.121Z,6.97
2023-03-19T19:53:31.025Z,6.93
2023-03-19T19:58:34.083Z,6.57
2023-03-19T20:03:35.795Z,6.50
2023-03-19T20:08:38.064Z,6.80
2023-03-19T20:13:40.565Z,7.88
2023-03-19T20:18:43.648Z,6.95
2023-03-19T20:23:45.692Z,6.70
2023-03-19T20:28:48.219Z,6.95
2023-03-19T20:33:49.835Z,7.35
2023-03-19T20:38:52.604Z,6.97
2023-03-19T20:43:55.754Z,5.25
2023-03-19T20:48:57.391Z,7.63
2023-03-19T20:53:59.075Z,8.95
2023-03-19T20:59:00.690Z,9.52
2023-03-19T21:04:02.308Z,7.57
2023-03-19T21:09:04.382Z,9.55
2023-03-19T21:14:06.548Z,7.47
2023-03-19T21:19:08.137Z,8.00
2023-03-19T21:24:16.486Z,7.03
2023-03-19T21:29:29.145Z,5.82
2023-03-19T21:34:31.010Z,6.25
2023-03-19T21:39:32.634Z,5.55
2023-03-19T21:44:34.312Z,5.88
2023-03-19T21:49:35.906Z,7.53
2023-03-19T21:54:37.493Z,7.10
2023-03-19T21:59:40.347Z,7.55
2023-03-19T22:04:41.981Z,7.70
2023-03-19T22:09:45.346Z,8.52
2023-03-19T22:14:46.974Z,8.48
2023-03-19T22:19:48.594Z,9.95
2023-03-19T22:24:50.339Z,7.97
2023-03-19T22:29:51.955Z,7.70
2023-03-19T22:34:53.564Z,7.93
2023-03-19T22:39:55.698Z,7.30
2023-03-19T22:44:57.541Z,7.40
2023-03-19T22:49:59.451Z,8.07
2023-03-19T22:55:01.045Z,7.40
2023-03-19T23:00:12.070Z,7.43
2023-03-19T23:05:25.262Z,8.02
2023-03-19T23:10:29.881Z,7.90
2023-03-19T23:15:31.476Z,9.38
2023-03-19T23:20:33.827Z,7.63
2023-03-19T23:25:36.545Z,7.90
2023-03-19T23:30:41.445Z,8.05
2023-03-19T23:35:43.764Z,7.38
2023-03-19T23:40:46.294Z,6.40
2023-03-19T23:45:50.402Z,6.38
2023-03-19T23:50:52.597Z,5.40
2023-03-19T23:55:59.590Z,5.78
